Time;durP1;ratioP1;P1;durP2;ratioP2;P2;SDS_P1;SDS_P2;PMS_P1;PMS_P2;Temp;Humidity;BMP_temperature;BMP_pressure;BME280_temperature;BME280_humidity;BME280_pressure;Samples;Min_cycle;Max_cycle;Signal;HPM_P1;HPM_P2
2023/05/10 00:02:10;;;;;;;3.85;1.90;;;23.00;41.70;;;;;;5013394;28;20280;-57
2023/05/10 00:04:38;;;;;;;1.73;1.60;;;22.90;41.70;;;;;;5013553;28;20053;-57
2023/05/10 00:07:05;;;;;;;2.13;1.65;;;23.00;41.80;;;;;;4993743;28;20074;-57
2023/05/10 00:09:32;;;;;;;1.63;1.48;;;22.90;41.80;;;;;;4993488;28;20142;-57
2023/05/10 00:12:00;;;;;;;3.33;2.03;;;22.90;41.80;;;;;;4993554;28;20050;-57
2023/05/10 00:14:27;;;;;;;2.05;1.73;;;22.90;41.80;;;;;;4993589;28;20053;-57
2023/05/10 00:16:54;;;;;;;2.35;1.90;;;22.90;41.80;;;;;;4993337;28;20162;-57
2023/05/10 00:19:21;;;;;;;1.75;1.50;;;22.90;41.80;;;;;;4993624;28;20051;-57
2023/05/10 00:21:48;;;;;;;2.28;2.08;;;22.90;41.90;;;;;;4993481;28;20089;-57
2023/05/10 00:24:16;;;;;;;2.08;1.92;;;22.90;41.90;;;;;;4993745;28;20077;-57
2023/05/10 00:26:43;;;;;;;1.77;1.65;;;22.90;42.00;;;;;;4993538;28;20134;-57
2023/05/10 00:29:10;;;;;;;2.13;1.80;;;22.90;42.00;;;;;;4993531;28;20058;-57
2023/05/10 00:31:37;;;;;;;1.67;1.52;;;22.90;42.00;;;;;;4993617;28;20137;-57
2023/05/10 00:34:04;;;;;;;2.00;1.80;;;22.80;42.00;;;;;;4993322;28;20057;-57
2023/05/10 00:36:31;;;;;;;2.45;2.08;;;22.90;42.10;;;;;;4993173;28;20101;-57
2023/05/10 00:38:59;;;;;;;2.20;1.80;;;22.90;41.90;;;;;;4993173;28;20133;-57
2023/05/10 00:41:26;;;;;;;2.65;2.17;;;22.90;41.90;;;;;;4993370;28;20062;-57
2023/05/10 00:43:53;;;;;;;2.28;2.08;;;22.90;41.80;;;;;;4992828;28;20137;-57
2023/05/10 00:46:21;;;;;;;2.88;1.83;;;22.90;41.80;;;;;;4993613;28;20115;-57
2023/05/10 00:48:49;;;;;;;2.50;2.05;;;22.80;41.80;;;;;;4993314;28;20055;-57
2023/05/10 00:51:16;;;;;;;1.67;1.58;;;22.90;41.80;;;;;;4991941;28;20078;-57
2023/05/10 00:53:48;;;;;;;2.03;1.83;;;22.90;41.90;;;;;;4993251;28;20100;-57
2023/05/10 00:56:15;;;;;;;2.20;2.00;;;22.90;41.80;;;;;;4993443;28;20047;-57
2023/05/10 00:58:43;;;;;;;2.08;1.85;;;22.90;41.80;;;;;;4993532;28;20085;-58
2023/05/10 01:01:11;;;;;;;1.75;1.65;;;22.80;41.80;;;;;;4993484;28;20085;-57
2023/05/10 01:03:40;;;;;;;1.60;1.50;;;22.80;41.80;;;;;;4993152;28;20046;-60
2023/05/10 01:06:07;;;;;;;1.50;1.40;;;22.80;41.80;;;;;;4993037;28;20075;-56
2023/05/10 01:08:35;;;;;;;1.90;1.70;;;22.80;41.80;;;;;;4993926;28;20093;-57
2023/05/10 01:11:02;;;;;;;1.85;1.73;;;22.70;41.70;;;;;;4996074;28;20046;-57
2023/05/10 01:13:43;;;;;;;2.15;1.95;;;22.80;41.80;;;;;;4996814;28;20057;-57
2023/05/10 01:16:10;;;;;;;2.13;1.90;;;22.80;41.90;;;;;;4996366;28;20078;-57
2023/05/10 01:18:40;;;;;;;2.45;1.83;;;22.80;41.90;;;;;;4996490;28;20054;-57
2023/05/10 01:21:42;;;;;;;3.55;1.80;;;22.70;41.80;;;;;;4996749;28;20497;-57
2023/05/10 01:24:47;;;;;;;2.75;1.70;;;22.70;41.80;;;;;;4995927;28;20085;-57
2023/05/10 01:27:36;;;;;;;1.67;1.50;;;22.70;41.80;;;;;;4996588;28;20078;-57
2023/05/10 01:30:43;;;;;;;1.77;1.55;;;22.70;41.80;;;;;;4996365;28;20137;-57
2023/05/10 01:33:36;;;;;;;1.92;1.63;;;22.70;41.90;;;;;;4996170;28;20142;-57
2023/05/10 01:36:31;;;;;;;1.90;1.70;;;22.70;41.90;;;;;;5007457;28;20137;-57
2023/05/10 01:39:11;;;;;;;2.00;1.30;;;22.70;41.80;;;;;;5015599;28;20478;-57
2023/05/10 01:42:04;;;;;;;2.30;2.10;;;22.70;41.90;;;;;;5015414;28;20049;-57
2023/05/10 01:44:58;;;;;;;2.15;1.95;;;22.70;41.90;;;;;;5014749;28;20129;-57
2023/05/10 01:47:41;;;;;;;2.20;2.00;;;22.70;41.90;;;;;;5015701;28;20383;-57
2023/05/10 01:50:19;;;;;;;2.05;1.48;;;22.70;42.00;;;;;;5015597;28;20053;-57
2023/05/10 01:52:54;;;;;;;1.55;1.45;;;22.70;42.00;;;;;;5015308;28;20050;-58
2023/05/10 01:55:25;;;;;;;2.88;1.70;;;22.70;42.00;;;;;;5015480;28;20046;-57
2023/05/10 01:58:05;;;;;;;2.45;1.80;;;22.70;42.10;;;;;;5015589;28;20050;-57
2023/05/10 02:00:34;;;;;;;3.33;2.35;;;22.70;42.10;;;;;;5015517;28;20144;-57
2023/05/10 02:03:07;;;;;;;1.42;1.33;;;22.60;42.10;;;;;;5014032;28;20064;-57
2023/05/10 02:05:36;;;;;;;1.73;1.63;;;22.60;42.70;;;;;;5015436;28;20057;-57
2023/05/10 02:08:06;;;;;;;2.33;1.45;;;22.60;42.20;;;;;;5015122;28;20081;-57
2023/05/10 02:10:35;;;;;;;3.40;1.60;;;22.60;42.20;;;;;;5015048;28;20133;-57
2023/05/10 02:13:03;;;;;;;2.00;1.65;;;22.60;42.20;;;;;;5014917;28;20049;-57
2023/05/10 02:15:32;;;;;;;1.75;1.63;;;22.60;42.10;;;;;;5015042;28;20050;-57
2023/05/10 02:18:01;;;;;;;2.40;1.65;;;22.70;42.10;;;;;;5015040;28;20537;-57
2023/05/10 02:20:31;;;;;;;2.00;1.80;;;22.70;42.00;;;;;;5013966;28;20048;-57
2023/05/10 02:22:59;;;;;;;2.80;1.67;;;22.70;42.00;;;;;;5015241;28;20050;-57
2023/05/10 02:25:28;;;;;;;1.95;1.58;;;22.70;42.00;;;;;;5014716;28;20046;-57
2023/05/10 02:27:57;;;;;;;2.00;1.35;;;22.70;41.90;;;;;;5014769;28;20069;-57
2023/05/10 02:30:25;;;;;;;2.60;1.73;;;22.70;41.90;;;;;;5015200;28;20046;-57
2023/05/10 02:32:53;;;;;;;2.58;1.40;;;22.70;41.90;;;;;;5014537;28;20479;-57
2023/05/10 02:35:22;;;;;;;1.90;1.67;;;22.70;41.90;;;;;;5014691;28;20050;-60
2023/05/10 02:37:51;;;;;;;2.25;1.92;;;22.60;41.80;;;;;;5014705;28;20085;-58
2023/05/10 02:40:19;;;;;;;2.08;1.73;;;22.60;41.80;;;;;;5014872;28;20053;-58
2023/05/10 02:42:48;;;;;;;2.00;1.75;;;22.60;41.90;;;;;;5014579;28;20132;-58
2023/05/10 02:45:20;;;;;;;2.30;1.30;;;22.60;41.90;;;;;;5014537;28;20548;-57
2023/05/10 02:47:48;;;;;;;2.05;1.45;;;22.60;41.90;;;;;;5014396;28;20546;-58
2023/05/10 02:50:15;;;;;;;1.52;1.38;;;22.60;41.90;;;;;;5014465;28;20050;-64
2023/05/10 02:52:49;;;;;;;1.60;1.50;;;22.60;41.90;;;;;;5013086;28;20137;-57
2023/05/10 02:55:21;;;;;;;1.70;1.40;;;22.60;41.90;;;;;;5014354;28;20133;-57
2023/05/10 02:57:57;;;;;;;1.35;1.23;;;22.60;41.90;;;;;;5014196;28;20054;-58
2023/05/10 03:00:25;;;;;;;1.92;1.52;;;22.60;41.90;;;;;;5014458;28;20128;-58
2023/05/10 03:02:52;;;;;;;1.98;1.70;;;22.60;41.90;;;;;;5014287;28;20072;-58
2023/05/10 03:05:20;;;;;;;2.45;1.40;;;22.60;41.90;;;;;;5014543;28;20091;-58
2023/05/10 03:07:48;;;;;;;1.83;1.70;;;22.60;41.90;;;;;;5014006;28;20060;-57
2023/05/10 03:10:15;;;;;;;1.55;1.33;;;22.60;41.90;;;;;;5014470;28;20152;-58
2023/05/10 03:13:10;;;;;;;1.52;1.42;;;22.60;41.90;;;;;;5013867;28;20061;-57
2023/05/10 03:15:57;;;;;;;1.63;1.42;;;22.60;41.90;;;;;;5013837;28;20506;-58
2023/05/10 03:18:34;;;;;;;1.90;1.52;;;22.60;41.90;;;;;;5013190;28;20418;-58
2023/05/10 03:21:05;;;;;;;2.15;1.38;;;22.60;41.90;;;;;;5014144;28;20056;-58
2023/05/10 03:23:43;;;;;;;1.40;1.30;;;22.60;41.90;;;;;;5013846;28;20487;-57
2023/05/10 03:26:14;;;;;;;2.65;1.77;;;22.50;41.90;;;;;;5014090;28;20049;-57
2023/05/10 03:28:42;;;;;;;1.63;1.45;;;22.60;41.90;;;;;;5012570;28;20049;-57
2023/05/10 03:31:10;;;;;;;1.50;1.40;;;22.50;41.90;;;;;;5013296;28;20046;-57
2023/05/10 03:33:49;;;;;;;2.17;1.23;;;22.50;42.00;;;;;;5011723;28;20153;-57
2023/05/10 03:36:17;;;;;;;1.92;1.83;;;22.50;42.00;;;;;;4993875;28;20129;-57
2023/05/10 03:38:44;;;;;;;1.27;1.15;;;22.50;42.00;;;;;;4996825;28;20054;-57
2023/05/10 03:41:12;;;;;;;1.92;1.38;;;22.50;42.00;;;;;;5013493;28;20133;-57
2023/05/10 03:43:39;;;;;;;1.50;1.40;;;22.50;42.00;;;;;;5013500;28;20049;-57
2023/05/10 03:46:06;;;;;;;1.50;1.40;;;22.50;42.10;;;;;;5013448;28;20088;-58
2023/05/10 03:48:33;;;;;;;1.15;1.13;;;22.60;42.10;;;;;;5013839;28;20050;-57
2023/05/10 03:51:01;;;;;;;1.35;1.25;;;22.50;42.00;;;;;;5012411;28;20076;-57
2023/05/10 03:53:28;;;;;;;1.40;1.27;;;22.60;42.00;;;;;;5012737;28;20050;-57
2023/05/10 03:55:55;;;;;;;1.58;1.40;;;22.60;42.00;;;;;;5001524;28;20074;-57
2023/05/10 03:58:22;;;;;;;2.72;1.60;;;22.60;41.90;;;;;;5012289;28;20053;-57
2023/05/10 04:00:50;;;;;;;2.20;1.10;;;22.60;41.70;;;;;;5004936;28;20046;-57
2023/05/10 04:03:18;;;;;;;2.30;1.73;;;22.70;41.70;;;;;;5003204;28;20056;-57
2023/05/10 04:05:45;;;;;;;1.40;1.30;;;22.70;42.20;;;;;;5002245;28;20130;-57
2023/05/10 04:08:12;;;;;;;1.55;1.45;;;22.70;41.70;;;;;;4993720;28;20092;-57
2023/05/10 04:10:39;;;;;;;1.23;1.13;;;22.70;41.70;;;;;;4997185;28;20133;-57
2023/05/10 04:13:06;;;;;;;1.52;1.42;;;22.70;41.70;;;;;;5005895;28;20052;-57
2023/05/10 04:15:34;;;;;;;2.85;1.75;;;22.70;41.70;;;;;;5007048;28;20096;-57
2023/05/10 04:18:01;;;;;;;1.50;1.40;;;22.70;41.60;;;;;;5004133;28;20513;-57
2023/05/10 04:20:28;;;;;;;1.30;1.20;;;22.70;41.60;;;;;;5011489;28;20498;-57
2023/05/10 04:22:55;;;;;;;1.30;1.20;;;22.70;41.50;;;;;;5012200;28;20052;-57
2023/05/10 04:25:22;;;;;;;1.15;1.05;;;22.70;41.50;;;;;;5011588;28;20050;-57
2023/05/10 04:27:49;;;;;;;1.25;1.08;;;22.80;41.50;;;;;;5010095;28;20050;-57
2023/05/10 04:30:16;;;;;;;1.73;1.25;;;22.80;41.50;;;;;;5007684;28;20042;-57
2023/05/10 04:32:44;;;;;;;1.35;1.25;;;22.80;41.40;;;;;;5008925;28;20089;-57
2023/05/10 04:35:11;;;;;;;1.98;1.30;;;22.80;41.40;;;;;;5002366;28;20064;-57
2023/05/10 04:37:39;;;;;;;2.05;1.60;;;22.80;41.30;;;;;;5007223;28;20077;-57
2023/05/10 04:40:06;;;;;;;2.47;1.80;;;22.90;41.20;;;;;;5004945;28;20050;-57
2023/05/10 04:42:34;;;;;;;1.55;1.45;;;22.80;41.60;;;;;;4995762;28;20086;-57
2023/05/10 04:45:01;;;;;;;2.45;1.33;;;22.90;41.00;;;;;;5006267;28;20081;-57
2023/05/10 04:47:28;;;;;;;1.42;1.33;;;22.90;40.90;;;;;;5015968;28;20045;-57
2023/05/10 04:49:55;;;;;;;2.28;1.65;;;22.90;40.80;;;;;;5014638;28;20050;-57
2023/05/10 04:52:23;;;;;;;1.83;1.17;;;22.90;40.80;;;;;;5008722;28;20411;-57
2023/05/10 04:54:50;;;;;;;2.55;1.95;;;22.90;40.70;;;;;;5010217;28;20133;-57
2023/05/10 04:57:17;;;;;;;2.03;1.50;;;22.90;40.70;;;;;;5005847;28;20096;-57
2023/05/10 04:59:44;;;;;;;1.52;1.42;;;22.90;40.70;;;;;;5007577;28;20096;-57
2023/05/10 05:02:14;;;;;;;2.50;1.70;;;22.90;40.70;;;;;;5014085;28;20061;-57
2023/05/10 05:04:41;;;;;;;1.60;1.30;;;22.90;40.60;;;;;;5010239;28;20050;-57
2023/05/10 05:07:08;;;;;;;1.52;1.17;;;22.90;40.60;;;;;;5013181;28;20053;-57
2023/05/10 05:09:35;;;;;;;1.38;1.23;;;23.00;40.70;;;;;;5013489;28;20056;-57
2023/05/10 05:12:03;;;;;;;1.20;1.10;;;23.00;40.70;;;;;;5014978;28;20093;-57
2023/05/10 05:14:30;;;;;;;2.25;1.70;;;23.00;40.60;;;;;;5008423;28;21066;-59
2023/05/10 05:16:57;;;;;;;1.77;1.60;;;23.00;40.60;;;;;;5016240;28;20049;-57
2023/05/10 05:19:24;;;;;;;1.45;1.30;;;23.00;40.70;;;;;;5013915;28;20405;-64
2023/05/10 05:21:51;;;;;;;2.42;1.50;;;23.00;40.90;;;;;;5004345;28;20050;-63
2023/05/10 05:24:19;;;;;;;1.60;1.35;;;23.10;41.10;;;;;;5004682;28;20046;-63
2023/05/10 05:26:47;;;;;;;1.48;1.38;;;23.10;41.10;;;;;;5003039;28;20049;-62
2023/05/10 05:29:14;;;;;;;1.67;1.55;;;23.10;41.10;;;;;;5007938;28;20125;-62
2023/05/10 05:31:41;;;;;;;3.95;1.38;;;23.10;41.10;;;;;;5004246;28;20136;-62
2023/05/10 05:34:08;;;;;;;1.85;1.23;;;23.20;41.10;;;;;;5012686;28;20135;-61
2023/05/10 05:36:40;;;;;;;1.67;1.40;;;23.20;41.10;;;;;;5000478;28;20038;-63
2023/05/10 05:39:07;;;;;;;1.92;1.63;;;23.20;41.10;;;;;;5002633;28;20070;-61
2023/05/10 05:41:35;;;;;;;1.50;1.35;;;23.30;41.10;;;;;;5005722;28;20391;-63
2023/05/10 05:44:02;;;;;;;1.92;1.60;;;23.30;41.10;;;;;;4999928;28;20042;-61
2023/05/10 05:46:29;;;;;;;2.47;1.98;;;23.30;41.00;;;;;;5001481;28;20125;-63
2023/05/10 05:48:56;;;;;;;3.15;1.63;;;23.40;41.10;;;;;;4999561;28;20874;-62
2023/05/10 05:51:24;;;;;;;1.80;1.65;;;23.40;41.00;;;;;;5001597;28;20042;-62
2023/05/10 05:53:51;;;;;;;1.67;1.50;;;23.40;40.90;;;;;;4998468;28;20046;-62
2023/05/10 05:56:23;;;;;;;1.17;1.10;;;23.40;40.90;;;;;;5001771;28;20085;-62
2023/05/10 05:58:51;;;;;;;1.77;1.65;;;23.50;40.90;;;;;;5003177;28;20132;-63
2023/05/10 06:01:19;;;;;;;1.88;1.70;;;23.50;41.00;;;;;;4999722;28;20108;-63
2023/05/10 06:03:46;;;;;;;1.88;1.48;;;23.50;41.00;;;;;;5000216;28;20065;-59
2023/05/10 06:06:15;;;;;;;3.17;1.50;;;23.60;41.10;;;;;;5019592;28;20050;-62
2023/05/10 06:08:42;;;;;;;4.70;1.30;;;23.60;41.20;;;;;;5001978;28;20135;-62
2023/05/10 06:11:10;;;;;;;1.70;1.60;;;23.60;41.10;;;;;;5002055;28;22001;-61
2023/05/10 06:13:37;;;;;;;5.03;1.40;;;23.70;41.10;;;;;;5004677;28;20117;-62
2023/05/10 06:16:05;;;;;;;2.85;2.25;;;23.70;41.00;;;;;;5004183;28;20510;-63
2023/05/10 06:18:32;;;;;;;2.05;1.70;;;23.70;40.90;;;;;;5003893;28;20042;-63
2023/05/10 06:20:59;;;;;;;1.45;1.33;;;23.80;40.80;;;;;;5001279;28;20050;-61
2023/05/10 06:23:27;;;;;;;1.92;1.25;;;23.80;40.70;;;;;;5001237;28;20518;-62
2023/05/10 06:25:54;;;;;;;3.22;1.45;;;23.90;40.70;;;;;;5002486;28;20052;-61
2023/05/10 06:28:22;;;;;;;4.95;1.65;;;23.90;40.70;;;;;;5001864;28;20074;-62
2023/05/10 06:30:49;;;;;;;9.40;2.65;;;23.90;40.80;;;;;;5000305;28;20482;-63
2023/05/10 06:33:16;;;;;;;10.98;2.35;;;24.00;40.80;;;;;;5002007;28;20134;-62
2023/05/10 06:35:43;;;;;;;7.68;2.90;;;24.00;41.30;;;;;;5002595;28;20049;-63
2023/05/10 06:38:10;;;;;;;3.42;2.15;;;24.00;40.60;;;;;;5001042;28;20050;-63
2023/05/10 06:40:42;;;;;;;3.80;1.90;;;24.10;40.60;;;;;;4999347;28;21020;-63
2023/05/10 06:43:10;;;;;;;5.13;2.35;;;24.10;40.40;;;;;;5003210;28;20050;-63
2023/05/10 06:45:37;;;;;;;3.53;2.35;;;24.10;40.40;;;;;;5000765;28;20116;-65
2023/05/10 06:48:05;;;;;;;7.15;2.72;;;24.20;40.40;;;;;;4998979;28;20054;-63
2023/05/10 06:50:33;;;;;;;11.70;3.03;;;24.10;40.30;;;;;;4999137;28;20053;-63
2023/05/10 06:53:01;;;;;;;7.03;2.67;;;24.20;40.40;;;;;;5001070;28;20060;-64
2023/05/10 06:55:29;;;;;;;8.45;2.92;;;24.20;40.20;;;;;;5000750;28;20050;-62
2023/05/10 06:57:57;;;;;;;8.10;2.92;;;24.20;40.10;;;;;;5001653;28;20050;-63
2023/05/10 07:00:24;;;;;;;9.02;2.70;;;24.30;40.10;;;;;;4999789;28;20089;-63
2023/05/10 07:02:51;;;;;;;5.10;2.63;;;24.30;40.00;;;;;;5003129;28;20084;-64
2023/05/10 07:05:19;;;;;;;7.13;2.58;;;24.30;40.10;;;;;;4999031;28;20064;-67
2023/05/10 07:07:47;;;;;;;3.55;2.35;;;24.30;40.10;;;;;;5003596;28;20136;-64
2023/05/10 07:10:15;;;;;;;3.25;1.90;;;24.30;40.10;;;;;;5005001;28;20166;-63
2023/05/10 07:12:42;;;;;;;4.35;2.40;;;24.40;40.00;;;;;;5001595;28;20061;-68
2023/05/10 07:15:09;;;;;;;3.03;2.25;;;24.40;40.00;;;;;;5002110;28;20057;-66
2023/05/10 07:17:36;;;;;;;3.70;2.03;;;24.40;39.90;;;;;;5004603;28;20133;-61
2023/05/10 07:20:04;;;;;;;4.82;2.05;;;24.40;40.00;;;;;;5000185;28;20050;-65
2023/05/10 07:22:32;;;;;;;7.55;2.08;;;24.50;40.00;;;;;;5000478;28;20054;-68
2023/05/10 07:24:59;;;;;;;3.38;1.70;;;24.50;39.90;;;;;;4996764;28;20054;-70
2023/05/10 07:27:26;;;;;;;3.47;1.73;;;24.50;39.80;;;;;;5003792;28;20133;-64
2023/05/10 07:29:54;;;;;;;2.60;1.67;;;24.50;40.30;;;;;;4997874;28;20084;-66
2023/05/10 07:32:21;;;;;;;4.88;2.13;;;24.50;39.70;;;;;;5001450;28;20046;-65
2023/05/10 07:34:50;;;;;;;3.83;1.48;;;24.50;39.50;;;;;;5002787;28;20046;-67
2023/05/10 07:37:17;;;;;;;2.60;1.65;;;24.50;39.40;;;;;;5001177;28;20137;-64
2023/05/10 07:39:44;;;;;;;1.52;1.40;;;24.60;39.40;;;;;;5014448;28;20068;-63
2023/05/10 07:42:11;;;;;;;2.45;1.92;;;24.60;39.40;;;;;;4999953;28;20557;-63
2023/05/10 07:44:38;;;;;;;1.70;1.60;;;24.60;39.90;;;;;;5003671;28;20063;-65
2023/05/10 07:47:06;;;;;;;4.10;1.52;;;24.60;39.40;;;;;;5005977;28;20080;-63
2023/05/10 07:49:33;;;;;;;1.73;1.48;;;24.70;39.60;;;;;;5005290;28;20065;-63
2023/05/10 07:52:00;;;;;;;3.20;1.80;;;24.70;39.60;;;;;;5006600;28;20086;-63
2023/05/10 07:54:27;;;;;;;2.45;1.60;;;24.70;39.60;;;;;;5004454;28;20075;-63
2023/05/10 07:56:54;;;;;;;2.95;1.65;;;24.70;39.60;;;;;;5000113;28;20045;-63
2023/05/10 07:59:22;;;;;;;1.52;1.42;;;24.70;39.60;;;;;;4998376;28;20046;-64
2023/05/10 08:01:49;;;;;;;3.45;1.23;;;24.70;39.50;;;;;;5001033;28;20060;-64
2023/05/10 08:04:16;;;;;;;1.92;1.73;;;24.80;39.50;;;;;;5020685;28;20140;-63
2023/05/10 08:06:44;;;;;;;2.90;1.58;;;24.80;40.00;;;;;;5017017;28;20100;-60
2023/05/10 08:09:11;;;;;;;6.13;1.95;;;24.80;39.40;;;;;;4998933;28;20053;-62
2023/05/10 08:11:39;;;;;;;9.10;1.58;;;24.90;39.40;;;;;;5001305;28;20053;-63
2023/05/10 08:14:07;;;;;;;3.03;1.45;;;24.90;39.40;;;;;;5001099;28;20054;-62
2023/05/10 08:16:34;;;;;;;2.80;1.42;;;24.90;39.30;;;;;;5005816;28;20049;-62
2023/05/10 08:19:01;;;;;;;2.35;1.05;;;24.90;39.20;;;;;;5004267;28;20128;-62
2023/05/10 08:21:29;;;;;;;2.42;2.08;;;24.90;39.00;;;;;;5007001;28;20050;-61
2023/05/10 08:23:57;;;;;;;6.75;1.77;;;25.00;39.00;;;;;;5006234;28;20132;-63
2023/05/10 08:26:24;;;;;;;1.50;1.40;;;25.10;39.00;;;;;;5006750;28;20450;-63
2023/05/10 08:28:52;;;;;;;1.65;1.52;;;25.10;38.90;;;;;;5006941;28;20053;-63
2023/05/10 08:31:19;;;;;;;1.88;1.42;;;25.10;38.70;;;;;;5009024;28;20406;-63
2023/05/10 08:33:46;;;;;;;3.15;1.40;;;25.10;38.70;;;;;;5008441;28;20046;-62
2023/05/10 08:36:19;;;;;;;1.33;1.10;;;25.20;38.70;;;;;;5011206;28;20050;-62
2023/05/10 08:38:46;;;;;;;1.10;1.10;;;25.20;38.50;;;;;;5002492;28;20042;-63
2023/05/10 08:41:17;;;;;;;2.00;1.50;;;25.20;38.40;;;;;;5002704;28;20050;-62
2023/05/10 08:43:46;;;;;;;2.50;1.35;;;25.30;39.10;;;;;;5003288;28;20248;-62
2023/05/10 08:46:18;;;;;;;3.70;1.27;;;25.30;38.30;;;;;;5004336;28;20145;-63
2023/05/10 08:48:47;;;;;;;3.75;1.88;;;25.30;38.30;;;;;;5003918;28;20058;-63
2023/05/10 08:51:18;;;;;;;3.78;1.73;;;25.40;38.20;;;;;;5002329;28;20054;-62
2023/05/10 08:53:46;;;;;;;1.92;1.33;;;25.40;38.10;;;;;;5009146;28;20137;-64
2023/05/10 08:56:15;;;;;;;3.15;1.40;;;25.40;38.10;;;;;;5005732;28;20478;-63
2023/05/10 08:58:42;;;;;;;1.43;1.20;;;25.40;38.10;;;;;;5009524;28;20072;-63
2023/05/10 09:01:10;;;;;;;1.77;1.20;;;25.40;38.10;;;;;;5006276;28;20054;-63
2023/05/10 09:03:39;;;;;;;2.45;1.40;;;25.50;38.10;;;;;;5008250;28;20056;-63
2023/05/10 09:06:06;;;;;;;1.30;1.17;;;25.50;38.10;;;;;;5008135;28;20049;-62
2023/05/10 09:08:34;;;;;;;2.50;1.50;;;25.50;38.10;;;;;;5009933;28;20490;-63
2023/05/10 09:11:01;;;;;;;3.58;1.42;;;25.60;38.20;;;;;;5004630;28;20132;-62
2023/05/10 09:13:29;;;;;;;1.48;1.38;;;25.60;38.20;;;;;;5007023;28;20053;-62
2023/05/10 09:15:57;;;;;;;1.40;1.25;;;25.60;38.10;;;;;;5008922;28;20103;-61
2023/05/10 09:18:32;;;;;;;3.63;2.05;;;25.70;38.10;;;;;;5008407;28;20092;-61
2023/05/10 09:21:00;;;;;;;2.00;1.50;;;25.70;38.00;;;;;;5006342;28;20100;-62
2023/05/10 09:23:32;;;;;;;2.78;1.58;;;25.70;37.90;;;;;;5003135;28;20049;-63
2023/05/10 09:26:04;;;;;;;1.63;1.50;;;25.80;37.90;;;;;;5002258;28;20129;-65
2023/05/10 09:28:50;;;;;;;4.90;1.67;;;25.80;37.70;;;;;;5005592;28;20080;-62
2023/05/10 09:31:17;;;;;;;1.73;1.10;;;25.90;37.80;;;;;;5003014;28;20661;-59
2023/05/10 09:33:46;;;;;;;1.60;1.50;;;25.90;37.90;;;;;;5005404;28;20049;-63
2023/05/10 09:36:14;;;;;;;2.45;1.33;;;25.90;37.90;;;;;;5005240;28;20069;-62
2023/05/10 09:38:51;;;;;;;2.45;1.58;;;26.00;37.80;;;;;;5003504;28;20044;-60
2023/05/10 09:41:21;;;;;;;1.88;1.48;;;26.00;37.70;;;;;;5006634;28;20076;-62
2023/05/10 09:43:49;;;;;;;1.58;1.40;;;26.10;37.80;;;;;;5003196;28;20221;-63
2023/05/10 09:46:17;;;;;;;1.42;1.27;;;26.10;37.70;;;;;;5003963;28;20050;-61
2023/05/10 09:48:47;;;;;;;1.48;1.38;;;26.10;37.60;;;;;;5005081;28;20065;-60
2023/05/10 09:51:24;;;;;;;1.83;1.73;;;26.20;37.40;;;;;;5008375;28;20168;-62
2023/05/10 09:54:15;;;;;;;1.88;1.77;;;26.20;37.20;;;;;;5010319;28;20037;-62
2023/05/10 09:56:43;;;;;;;1.70;1.60;;;26.30;37.10;;;;;;5008755;28;20038;-62
2023/05/10 09:59:12;;;;;;;1.60;1.50;;;26.30;37.20;;;;;;5007653;28;20045;-60
2023/05/10 10:01:40;;;;;;;4.97;2.13;;;26.30;37.30;;;;;;5009708;28;20125;-60
2023/05/10 10:04:09;;;;;;;1.60;1.50;;;26.30;37.30;;;;;;5012119;28;20402;-63
2023/05/10 10:06:38;;;;;;;1.67;1.55;;;26.30;37.20;;;;;;5006668;28;20100;-61
2023/05/10 10:09:06;;;;;;;1.83;1.73;;;26.30;37.20;;;;;;5010985;28;20045;-60
2023/05/10 10:11:38;;;;;;;2.08;1.88;;;26.30;37.10;;;;;;5007240;28;20054;-61
2023/05/10 10:14:06;;;;;;;2.08;1.90;;;26.30;37.20;;;;;;5008610;28;20042;-62
2023/05/10 10:16:33;;;;;;;1.83;1.73;;;26.30;37.20;;;;;;5004734;28;20058;-61
2023/05/10 10:19:01;;;;;;;2.47;2.28;;;26.30;37.10;;;;;;5004052;28;20050;-62
2023/05/10 10:21:28;;;;;;;2.05;1.95;;;26.30;37.10;;;;;;5001273;28;20046;-62
2023/05/10 10:23:55;;;;;;;4.10;2.03;;;26.20;37.00;;;;;;5006627;28;20108;-62
2023/05/10 10:26:23;;;;;;;2.45;1.80;;;26.20;37.10;;;;;;5009522;28;20494;-64
2023/05/10 10:29:24;;;;;;;2.58;2.00;;;26.20;37.00;;;;;;5007956;28;20124;-65
2023/05/10 10:32:24;;;;;;;4.15;2.30;;;26.20;37.00;;;;;;5008506;28;20236;-65
2023/05/10 10:34:52;;;;;;;12.10;2.03;;;26.30;36.90;;;;;;5007208;28;20050;-64
2023/05/10 10:37:19;;;;;;;2.20;2.00;;;26.30;36.90;;;;;;5006530;28;20052;-63
2023/05/10 10:39:50;;;;;;;7.55;2.53;;;26.30;36.90;;;;;;5004528;28;20053;-62
2023/05/10 10:42:43;;;;;;;1.90;1.80;;;26.30;36.70;;;;;;5008331;28;20458;-63
2023/05/10 10:45:14;;;;;;;3.60;2.40;;;26.30;36.60;;;;;;5007986;28;20077;-63
2023/05/10 10:47:43;;;;;;;5.00;2.45;;;26.30;36.50;;;;;;5005846;28;20074;-61
2023/05/10 10:50:12;;;;;;;4.93;2.33;;;26.30;36.30;;;;;;5002673;28;20081;-60
2023/05/10 10:52:41;;;;;;;2.33;2.13;;;26.30;36.00;;;;;;5007328;28;20124;-61
2023/05/10 10:55:18;;;;;;;2.17;2.03;;;26.30;35.40;;;;;;4999481;28;20458;-61
2023/05/10 10:57:49;;;;;;;2.67;2.47;;;26.30;35.00;;;;;;5007801;28;20056;-52
2023/05/10 11:00:23;;;;;;;2.38;2.00;;;26.30;35.00;;;;;;4996583;28;20060;-50
2023/05/10 11:03:15;;;;;;;2.55;2.10;;;26.30;35.10;;;;;;5080264;27;20398;-54
2023/05/10 11:05:43;;;;;;;5.97;2.30;;;26.30;35.30;;;;;;5076813;28;20467;-52
2023/05/10 11:08:14;;;;;;;3.78;2.15;;;26.30;35.50;;;;;;5080480;28;20149;-54
2023/05/10 11:11:09;;;;;;;2.25;2.00;;;26.40;35.30;;;;;;5078000;28;20083;-52
2023/05/10 11:13:45;;;;;;;2.47;2.28;;;26.40;35.30;;;;;;5077268;28;20062;-53
2023/05/10 11:16:21;;;;;;;9.37;2.43;;;26.40;35.40;;;;;;5079510;28;20523;-56
2023/05/10 11:19:04;;;;;;;3.42;2.85;;;26.40;35.60;;;;;;5079579;28;20305;-54
2023/05/10 11:21:34;;;;;;;1.92;1.83;;;26.50;35.90;;;;;;5079893;28;20063;-56
2023/05/10 11:24:05;;;;;;;2.65;2.05;;;26.50;36.00;;;;;;5080357;28;20036;-56
2023/05/10 11:26:35;;;;;;;3.13;1.67;;;26.50;36.00;;;;;;5078310;28;20488;-55
2023/05/10 11:29:04;;;;;;;6.80;2.75;;;26.60;36.00;;;;;;5076645;28;20080;-55
2023/05/10 11:31:32;;;;;;;2.45;2.05;;;26.60;36.00;;;;;;5080850;28;20055;-54
2023/05/10 11:34:03;;;;;;;2.47;2.28;;;26.60;36.10;;;;;;5082103;28;20044;-54
2023/05/10 11:36:35;;;;;;;4.45;2.08;;;26.60;36.10;;;;;;5081164;28;20101;-57
2023/05/10 11:39:04;;;;;;;2.25;2.15;;;26.60;35.90;;;;;;5075401;28;20411;-53
2023/05/10 11:41:31;;;;;;;6.82;2.25;;;26.60;35.80;;;;;;5083030;28;20044;-58
2023/05/10 11:43:59;;;;;;;3.50;2.10;;;26.60;35.90;;;;;;5082900;28;20145;-58
2023/05/10 11:46:28;;;;;;;2.90;1.98;;;26.70;35.90;;;;;;5080268;28;20071;-55
2023/05/10 11:49:01;;;;;;;3.95;1.95;;;26.70;35.70;;;;;;5079285;28;20084;-54
2023/05/10 11:51:29;;;;;;;4.88;1.95;;;26.70;35.80;;;;;;5076349;28;20102;-54
2023/05/10 11:53:57;;;;;;;3.28;1.92;;;26.70;35.90;;;;;;5080664;28;20064;-55
2023/05/10 11:56:26;;;;;;;2.47;1.92;;;26.70;35.80;;;;;;5080068;28;20053;-56
2023/05/10 11:58:57;;;;;;;2.30;1.60;;;26.80;35.80;;;;;;5077185;28;20044;-53
2023/05/10 12:01:26;;;;;;;2.35;2.15;;;26.80;35.80;;;;;;5081576;28;20056;-58
2023/05/10 12:03:58;;;;;;;3.45;2.10;;;26.70;35.70;;;;;;5080741;28;20052;-57
2023/05/10 12:06:32;;;;;;;2.85;1.90;;;26.80;35.80;;;;;;5081710;28;20044;-56
2023/05/10 12:09:05;;;;;;;2.08;1.83;;;26.80;35.40;;;;;;5084855;28;20044;-58
2023/05/10 12:11:37;;;;;;;1.70;1.60;;;26.80;35.00;;;;;;5080222;28;20070;-57
2023/05/10 12:14:09;;;;;;;2.17;1.98;;;26.80;34.70;;;;;;5069110;28;20056;-55
2023/05/10 12:16:36;;;;;;;2.85;2.28;;;26.80;34.20;;;;;;5066567;28;20041;-58
2023/05/10 12:19:03;;;;;;;2.45;1.90;;;26.70;34.20;;;;;;5062855;28;20045;-55
2023/05/10 12:21:31;;;;;;;3.13;1.70;;;26.80;34.60;;;;;;5068624;28;20045;-56
2023/05/10 12:24:07;;;;;;;2.30;2.10;;;26.80;34.90;;;;;;5069376;28;20076;-56
2023/05/10 12:26:35;;;;;;;2.15;2.00;;;26.80;35.00;;;;;;5066855;28;20408;-55
2023/05/10 12:29:18;;;;;;;3.47;2.13;;;26.80;35.10;;;;;;5063899;28;20076;-53
2023/05/10 12:31:55;;;;;;;2.97;1.92;;;26.80;35.10;;;;;;5065570;28;20053;-55
2023/05/10 12:34:34;;;;;;;3.72;2.42;;;26.80;35.20;;;;;;5067631;28;20055;-56
2023/05/10 12:37:03;;;;;;;2.63;1.75;;;26.80;35.30;;;;;;5068138;28;20044;-54
2023/05/10 12:39:41;;;;;;;1.98;1.77;;;26.80;35.30;;;;;;5066618;28;20059;-58
2023/05/10 12:42:09;;;;;;;3.65;2.10;;;26.80;35.30;;;;;;5071496;28;20131;-55
2023/05/10 12:44:36;;;;;;;2.22;1.60;;;26.80;35.30;;;;;;5065845;28;20131;-54
2023/05/10 12:47:03;;;;;;;1.60;1.50;;;26.80;35.30;;;;;;5061736;28;20054;-56
2023/05/10 12:49:31;;;;;;;4.20;2.33;;;26.80;35.40;;;;;;5064402;28;20377;-56
2023/05/10 12:51:58;;;;;;;4.60;2.33;;;26.80;35.60;;;;;;5064608;28;20091;-54
2023/05/10 12:54:28;;;;;;;2.95;2.00;;;26.80;35.50;;;;;;5059038;28;20474;-57
2023/05/10 12:56:56;;;;;;;8.90;1.70;;;26.90;35.50;;;;;;5065445;28;20044;-58
2023/05/10 12:59:23;;;;;;;7.07;3.05;;;26.90;35.60;;;;;;5060257;28;20516;-59
2023/05/10 13:01:50;;;;;;;11.02;3.45;;;26.90;35.60;;;;;;5058463;28;20135;-59